Time;durP1;ratioP1;P1;durP2;ratioP2;P2;SDS_P1;SDS_P2;PMS_P1;PMS_P2;Temp;Humidity;BMP_temperature;BMP_pressure;BME280_temperature;BME280_humidity;BME280_pressure;Samples;Min_cycle;Max_cycle;Signal;HPM_P1;HPM_P2
2022/10/23 00:00:09;;;;;;;4.43;3.28;;;;;;;19.48;56.82;101400.88;5063125;28;20045;-52
2022/10/23 00:02:34;;;;;;;5.38;3.33;;;;;;;19.47;56.75;101396.50;5063515;28;20029;-51
2022/10/23 00:04:59;;;;;;;4.88;3.45;;;;;;;19.48;56.54;101405.44;5063108;28;20688;-52
2022/10/23 00:07:24;;;;;;;3.42;2.63;;;;;;;19.48;56.81;101414.38;5063048;28;20128;-53
2022/10/23 00:09:50;;;;;;;3.80;3.00;;;;;;;19.47;56.48;101407.28;5062763;28;20048;-54
2022/10/23 00:12:16;;;;;;;4.22;2.80;;;;;;;19.39;56.58;101396.47;5063353;28;20031;-54
2022/10/23 00:14:41;;;;;;;3.55;2.60;;;;;;;19.47;56.97;101406.44;5063407;28;20045;-49
2022/10/23 00:17:06;;;;;;;4.55;3.25;;;;;;;19.44;56.86;101398.66;5063592;28;20040;-51
2022/10/23 00:19:31;;;;;;;4.68;3.20;;;;;;;19.45;56.95;101401.22;5067161;28;20021;-55
2022/10/23 00:21:57;;;;;;;3.63;2.92;;;;;;;19.45;56.59;101398.53;5066922;28;20029;-53
2022/10/23 00:24:22;;;;;;;3.78;2.70;;;;;;;19.45;56.81;101401.22;5066066;28;20104;-52
2022/10/23 00:26:50;;;;;;;3.97;3.15;;;;;;;19.45;56.67;101395.84;5066981;28;20032;-48
2022/10/23 00:29:15;;;;;;;3.20;2.90;;;;;;;19.43;56.37;101392.44;5067119;28;20116;-53
2022/10/23 00:31:41;;;;;;;4.22;3.03;;;;;;;19.45;56.40;101392.25;5066874;28;20029;-51
2022/10/23 00:34:07;;;;;;;3.97;2.78;;;;;;;19.38;56.91;101389.38;5067313;28;20029;-52
2022/10/23 00:36:32;;;;;;;3.60;2.83;;;;;;;19.43;56.37;101391.59;5066785;28;20608;-53
2022/10/23 00:38:58;;;;;;;4.10;2.92;;;;;;;19.42;56.40;101381.81;5066696;28;20468;-52
2022/10/23 00:41:27;;;;;;;3.40;2.90;;;;;;;19.40;56.42;101381.97;5066712;28;20120;-51
2022/10/23 00:44:09;;;;;;;4.05;2.47;;;;;;;19.42;56.64;101385.34;5066884;28;20024;-52
2022/10/23 00:46:36;;;;;;;4.60;3.10;;;;;;;19.41;56.32;101391.75;5066848;28;20029;-53
2022/10/23 00:49:03;;;;;;;3.92;2.85;;;;;;;19.29;56.29;101376.03;5066739;28;20025;-55
2022/10/23 00:51:35;;;;;;;3.28;2.80;;;;;;;19.34;56.53;101381.78;5066419;28;20017;-52
2022/10/23 00:54:01;;;;;;;4.10;2.53;;;;;;;19.40;56.46;101390.06;5065290;28;20029;-53
2022/10/23 00:56:27;;;;;;;3.92;2.83;;;;;;;19.37;56.83;101393.09;5065174;28;20063;-52
2022/10/23 00:58:52;;;;;;;4.03;3.10;;;;;;;19.39;56.75;101399.16;5066121;28;20036;-52
2022/10/23 01:01:20;;;;;;;3.50;2.60;;;;;;;19.40;56.74;101405.38;5066223;28;20088;-54
2022/10/23 01:03:46;;;;;;;4.60;3.30;;;;;;;19.29;56.47;101384.94;5066526;28;20029;-51
2022/10/23 01:06:20;;;;;;;3.60;2.80;;;;;;;19.38;56.55;101391.25;5066134;28;20029;-55
2022/10/23 01:08:49;;;;;;;3.88;2.80;;;;;;;19.37;56.65;101379.59;5066105;28;20115;-53
2022/10/23 01:11:25;;;;;;;3.95;2.92;;;;;;;19.38;56.54;101375.06;5065046;28;20024;-54
2022/10/23 01:13:53;;;;;;;4.47;3.13;;;;;;;19.37;56.52;101367.94;5055122;28;20029;-53
2022/10/23 01:16:51;;;;;;;4.23;2.83;;;;;;;19.37;56.64;101367.94;5066335;28;20032;-55
2022/10/23 01:19:43;;;;;;;3.73;2.60;;;;;;;19.35;56.49;101367.28;5058107;28;20398;-54
2022/10/23 01:22:33;;;;;;;3.22;2.63;;;;;;;19.35;56.71;101369.97;5065967;28;20021;-54
2022/10/23 01:25:02;;;;;;;3.50;2.25;;;;;;;19.35;56.76;101367.28;5065842;28;20031;-54
2022/10/23 01:27:30;;;;;;;;;;;;;;;19.33;56.47;101374.69;5065080;28;20040;-53
2022/10/23 01:30:05;;;;;;;4.73;2.87;;;;;;;19.32;56.75;101367.59;5064255;28;19908;-53
2022/10/23 01:32:39;;;;;;;3.50;2.63;;;;;;;19.31;56.47;101358.66;5066010;28;20045;-54
2022/10/23 01:35:12;;;;;;;4.15;2.75;;;;;;;19.31;56.42;101355.97;5066100;28;20107;-53
2022/10/23 01:37:44;;;;;;;2.65;2.38;;;;;;;19.30;56.46;101356.13;5065890;28;20108;-53
2022/10/23 01:40:20;;;;;;;3.90;2.63;;;;;;;19.28;56.55;101342.78;5064002;28;20033;-52
2022/10/23 01:42:51;;;;;;;3.53;2.47;;;;;;;19.22;56.42;101338.06;5064369;28;20083;-54
2022/10/23 01:45:40;;;;;;;4.15;2.70;;;;;;;19.30;56.70;101353.44;5064348;28;20155;-53
2022/10/23 01:48:08;;;;;;;2.40;2.20;;;;;;;19.28;56.50;101352.75;5059312;28;20113;-50
2022/10/23 01:50:33;;;;;;;2.83;2.20;;;;;;;19.30;56.62;101353.44;5065001;28;20036;-50
2022/10/23 01:52:59;;;;;;;6.45;3.35;;;;;;;19.28;56.44;101353.59;5065565;28;20021;-48
2022/10/23 01:55:25;;;;;;;3.15;2.38;;;;;;;19.27;56.39;101345.66;5065253;28;20024;-52
2022/10/23 01:57:51;;;;;;;3.25;2.67;;;;;;;19.26;56.70;101344.81;5063708;28;20049;-50
2022/10/23 02:00:17;;;;;;;3.95;2.47;;;;;;;19.26;56.58;101341.28;5065101;28;20049;-51
2022/10/23 02:02:43;;;;;;;2.83;2.53;;;;;;;19.28;56.50;101341.97;5065419;28;20029;-50
2022/10/23 02:05:35;;;;;;;3.25;2.40;;;;;;;19.28;56.33;101333.88;5063918;28;20035;-51
2022/10/23 02:08:01;;;;;;;3.20;2.28;;;;;;;19.12;56.44;101315.78;5062630;28;20099;-49
2022/10/23 02:10:51;;;;;;;4.40;2.97;;;;;;;19.27;56.60;101324.94;5063173;28;20033;-49
2022/10/23 02:13:26;;;;;;;4.82;2.85;;;;;;;19.26;56.36;101325.13;5058601;28;20029;-55
2022/10/23 02:16:17;;;;;;;2.83;2.10;;;;;;;19.25;56.45;101324.28;5045411;28;20458;-50
2022/10/23 02:19:01;;;;;;;4.80;2.85;;;;;;;19.25;56.17;101326.13;5040572;28;20033;-53
2022/10/23 02:21:45;;;;;;;2.97;2.45;;;;;;;19.25;56.34;101315.34;5070826;28;20032;-51
2022/10/23 02:24:13;;;;;;;3.22;2.25;;;;;;;19.23;56.69;101307.41;5064853;28;20108;-50
2022/10/23 02:26:42;;;;;;;2.83;2.33;;;;;;;19.23;56.40;101308.22;5063550;28;20036;-52
2022/10/23 02:29:25;;;;;;;2.90;2.30;;;;;;;19.23;56.44;101304.69;5064675;28;20031;-52
2022/10/23 02:31:50;;;;;;;2.70;2.45;;;;;;;19.20;56.58;101300.50;5063554;28;20025;-49
2022/10/23 02:34:15;;;;;;;3.08;2.70;;;;;;;19.21;56.62;101304.88;5065052;28;20052;-49
2022/10/23 02:36:41;;;;;;;3.05;2.65;;;;;;;19.21;56.50;101304.88;5063351;28;20028;-52
2022/10/23 02:39:06;;;;;;;3.25;2.33;;;;;;;19.22;56.62;101300.31;5064185;28;20651;-52
2022/10/23 02:41:40;;;;;;;2.42;1.90;;;;;;;19.13;56.45;101285.97;5063455;28;20029;-52
2022/10/23 02:44:25;;;;;;;3.20;2.50;;;;;;;19.20;56.21;101291.56;5063482;28;20484;-52
2022/10/23 02:47:13;;;;;;;3.28;2.85;;;;;;;19.20;56.55;101291.56;5063154;28;20029;-53
2022/10/23 02:49:53;;;;;;;3.38;2.25;;;;;;;19.20;56.25;101292.41;5063202;28;20070;-52
2022/10/23 02:52:34;;;;;;;2.85;2.30;;;;;;;19.19;56.28;101285.31;5064517;28;20025;-53
2022/10/23 02:55:27;;;;;;;3.42;2.40;;;;;;;19.18;56.32;101283.63;5062896;28;20211;-52
2022/10/23 02:57:56;;;;;;;2.65;2.35;;;;;;;19.18;56.22;101282.78;5063757;28;20025;-51
2022/10/23 03:00:22;;;;;;;3.75;2.22;;;;;;;19.10;56.44;101267.41;5062796;28;20041;-52
2022/10/23 03:02:57;;;;;;;3.22;2.20;;;;;;;19.17;56.19;101287.31;5064076;28;20037;-51
2022/10/23 03:05:27;;;;;;;2.53;2.30;;;;;;;19.17;56.58;101281.94;5064166;28;20051;-51
2022/10/23 03:07:52;;;;;;;2.60;2.30;;;;;;;19.12;56.56;101270.81;5062434;28;20032;-52
2022/10/23 03:10:17;;;;;;;4.05;2.45;;;;;;;19.16;56.18;101277.56;5063709;28;20021;-52
2022/10/23 03:12:43;;;;;;;2.40;2.15;;;;;;;19.16;56.37;101272.16;5063816;28;20017;-49
2022/10/23 03:15:10;;;;;;;2.90;1.90;;;;;;;19.16;56.11;101266.78;5064205;28;20059;-53
2022/10/23 03:17:35;;;;;;;3.58;2.30;;;;;;;19.12;56.43;101265.41;5063930;28;20055;-53
2022/10/23 03:20:00;;;;;;;4.30;2.40;;;;;;;19.14;56.31;101274.16;5063873;28;20033;-54
2022/10/23 03:22:26;;;;;;;2.97;2.13;;;;;;;19.15;56.30;101267.75;5063654;28;20025;-53
2022/10/23 03:24:51;;;;;;;2.65;2.33;;;;;;;19.14;56.14;101268.78;5063448;28;20021;-51
2022/10/23 03:27:16;;;;;;;4.15;2.35;;;;;;;19.14;56.48;101265.25;5063347;28;20500;-53
2022/10/23 03:29:41;;;;;;;4.38;2.28;;;;;;;19.13;56.19;101260.88;5063757;28;20091;-52
2022/10/23 03:32:07;;;;;;;2.80;2.25;;;;;;;19.12;56.04;101265.41;5062290;28;20057;-53
2022/10/23 03:34:33;;;;;;;2.42;2.13;;;;;;;19.13;56.17;101252.78;5063858;28;20040;-54
2022/10/23 03:36:59;;;;;;;2.97;2.35;;;;;;;19.12;56.13;101245.69;5063473;28;20088;-48
2022/10/23 03:39:24;;;;;;;2.75;2.42;;;;;;;19.05;56.23;101231.19;5063060;28;20033;-51
2022/10/23 03:41:49;;;;;;;2.38;2.03;;;;;;;19.11;56.05;101244.84;5063120;28;20102;-52
2022/10/23 03:44:14;;;;;;;3.53;2.38;;;;;;;19.11;56.43;101247.53;5063546;28;20047;-53
2022/10/23 03:46:40;;;;;;;2.75;2.08;;;;;;;19.11;56.11;101252.91;5063276;28;20035;-52
2022/10/23 03:49:05;;;;;;;3.83;2.72;;;;;;;19.10;56.15;101251.22;5063818;28;20509;-51
2022/10/23 03:51:30;;;;;;;2.40;2.20;;;;;;;19.10;56.15;101253.09;5062853;28;20021;-53
2022/10/23 03:53:55;;;;;;;2.88;1.75;;;;;;;19.10;56.23;101253.09;5063056;28;20068;-54
2022/10/23 03:56:21;;;;;;;3.13;2.50;;;;;;;19.09;56.13;101251.41;5063541;28;20025;-55
2022/10/23 03:58:46;;;;;;;2.80;2.00;;;;;;;19.03;56.15;101234.03;5062848;28;20465;-51
2022/10/23 04:01:12;;;;;;;3.42;2.03;;;;;;;19.08;56.17;101242.47;5063052;28;20111;-53
2022/10/23 04:03:37;;;;;;;2.25;2.00;;;;;;;19.08;56.36;101245.19;5063494;28;20025;-54
2022/10/23 04:06:02;;;;;;;2.20;1.75;;;;;;;19.07;56.12;101240.78;5062728;28;20080;-51
2022/10/23 04:08:28;;;;;;;2.72;1.90;;;;;;;19.06;56.28;101236.38;5053207;28;20029;-55
2022/10/23 04:10:54;;;;;;;3.38;2.45;;;;;;;19.06;56.17;101231.00;5041438;28;20707;-52
2022/10/23 04:13:19;;;;;;;3.25;2.20;;;;;;;19.06;56.24;101233.69;5049045;28;20029;-51
2022/10/23 04:15:48;;;;;;;3.60;2.25;;;;;;;19.04;56.14;101226.81;5063237;28;20036;-52
2022/10/23 04:18:13;;;;;;;;;;;;;;;19.06;56.27;101232.84;5064066;28;20020;-53
2022/10/23 04:20:38;;;;;;;6.30;2.63;;;;;;;19.05;56.31;101229.31;5062580;28;19915;-54
2022/10/23 04:23:04;;;;;;;3.08;2.28;;;;;;;19.03;56.53;101227.78;5060488;28;20090;-50
2022/10/23 04:25:29;;;;;;;2.35;1.88;;;;;;;19.03;56.01;101225.97;5042710;28;20029;-54
2022/10/23 04:27:54;;;;;;;2.60;2.38;;;;;;;19.02;56.40;101226.94;5042674;28;20029;-54
2022/10/23 04:30:19;;;;;;;3.28;2.22;;;;;;;19.03;56.20;101225.09;5042909;28;20025;-53
2022/10/23 04:32:44;;;;;;;2.83;2.00;;;;;;;18.95;56.18;101207.06;5043739;28;20017;-52
2022/10/23 04:35:10;;;;;;;2.47;2.25;;;;;;;19.02;56.36;101210.78;5062273;28;20029;-51
2022/10/23 04:37:35;;;;;;;2.47;1.98;;;;;;;19.01;56.03;101206.41;5063154;28;20094;-51
2022/10/23 04:40:00;;;;;;;2.67;2.05;;;;;;;19.02;56.29;101204.53;5061545;28;20048;-48
2022/10/23 04:42:26;;;;;;;2.22;2.00;;;;;;;19.01;56.62;101200.16;5062715;28;20033;-51
2022/10/23 04:44:51;;;;;;;3.00;2.15;;;;;;;19.00;56.23;101196.63;5062636;28;20084;-50
2022/10/23 04:47:16;;;;;;;2.28;2.08;;;;;;;19.00;56.32;101204.72;5062747;28;20635;-52
2022/10/23 04:49:41;;;;;;;3.03;1.92;;;;;;;19.00;56.35;101199.31;5062717;28;20033;-53
2022/10/23 04:52:06;;;;;;;2.97;2.00;;;;;;;19.00;56.37;101195.78;5062855;28;20048;-51
2022/10/23 04:54:36;;;;;;;1.92;1.70;;;;;;;19.00;56.38;101190.41;5061387;28;20039;-52
2022/10/23 04:57:02;;;;;;;2.65;1.85;;;;;;;19.00;56.29;101185.00;5063123;28;20094;-50
2022/10/23 04:59:27;;;;;;;2.33;2.05;;;;;;;18.95;56.33;101174.72;5061958;28;20513;-51
2022/10/23 05:01:52;;;;;;;4.03;2.38;;;;;;;19.00;56.18;101177.78;5062555;28;20489;-50
2022/10/23 05:04:18;;;;;;;3.40;2.40;;;;;;;18.99;56.49;101170.69;5064329;28;20063;-50
2022/10/23 05:06:43;;;;;;;2.40;2.10;;;;;;;18.99;56.59;101173.41;5061562;28;20062;-50
2022/10/23 05:09:08;;;;;;;2.72;1.98;;;;;;;18.98;56.46;101169.00;5064782;28;20124;-51
2022/10/23 05:11:33;;;;;;;2.35;1.92;;;;;;;19.00;56.51;101167.00;5065375;28;20032;-50
2022/10/23 05:13:59;;;;;;;3.22;2.35;;;;;;;18.98;56.76;101164.44;5064526;28;20028;-53
2022/10/23 05:16:32;;;;;;;2.53;2.20;;;;;;;18.98;56.76;101161.75;5065623;28;20033;-53
2022/10/23 05:18:58;;;;;;;2.78;1.90;;;;;;;18.94;56.74;101146.91;5060169;28;20021;-54
2022/10/23 05:21:26;;;;;;;2.58;2.10;;;;;;;19.00;56.55;101160.75;5064449;28;20035;-54
2022/10/23 05:23:52;;;;;;;2.75;1.90;;;;;;;19.00;56.82;101152.69;5063659;28;20039;-50
2022/10/23 05:26:17;;;;;;;3.65;2.63;;;;;;;19.00;56.16;101149.97;5065851;28;20089;-54
2022/10/23 05:28:43;;;;;;;2.83;2.05;;;;;;;18.99;56.55;101146.44;5064739;28;20036;-53
2022/10/23 05:31:08;;;;;;;3.33;2.08;;;;;;;18.98;56.83;101140.19;5064528;28;20028;-55
2022/10/23 05:33:33;;;;;;;3.58;1.90;;;;;;;18.98;56.58;101142.03;5065550;28;20076;-52
2022/10/23 05:35:59;;;;;;;2.55;2.00;;;;;;;18.94;56.78;101136.13;5065636;28;20033;-54
2022/10/23 05:38:26;;;;;;;3.33;2.30;;;;;;;18.99;56.78;101143.75;5063838;28;20532;-53
2022/10/23 05:40:52;;;;;;;2.97;2.30;;;;;;;19.00;57.01;101147.28;5065108;28;20135;-52
2022/10/23 05:43:17;;;;;;;3.97;2.10;;;;;;;18.99;56.96;101149.16;5047421;28;20481;-54
2022/10/23 05:45:42;;;;;;;3.90;2.22;;;;;;;18.98;56.70;101147.44;5065383;28;20088;-54
2022/10/23 05:48:07;;;;;;;4.38;2.25;;;;;;;18.98;56.72;101147.44;5065021;28;20028;-52
2022/10/23 05:50:36;;;;;;;3.15;2.10;;;;;;;18.93;56.55;101142.53;5065172;28;20037;-54
2022/10/23 05:53:01;;;;;;;3.45;2.17;;;;;;;18.98;56.62;101153.66;5064589;28;20025;-54
2022/10/23 05:55:26;;;;;;;3.03;2.22;;;;;;;18.97;57.00;101168.16;5065144;28;20090;-53
2022/10/23 05:57:52;;;;;;;3.53;2.28;;;;;;;18.91;56.96;101151.81;5064655;28;20021;-53
2022/10/23 06:00:17;;;;;;;2.80;2.15;;;;;;;18.97;56.79;101168.16;5063671;28;20057;-54
2022/10/23 06:02:43;;;;;;;3.92;2.50;;;;;;;18.97;56.95;101160.06;5065234;28;20033;-55
2022/10/23 06:05:08;;;;;;;3.28;2.20;;;;;;;18.98;56.77;101150.13;5065303;28;20054;-52
2022/10/23 06:07:33;;;;;;;2.08;1.88;;;;;;;18.97;57.15;101149.28;5064826;28;20044;-53
2022/10/23 06:09:59;;;;;;;3.20;2.38;;;;;;;18.93;56.96;101134.44;5064186;28;20111;-52
2022/10/23 06:12:24;;;;;;;2.75;1.95;;;;;;;18.97;56.96;101137.66;5065240;28;20016;-55
2022/10/23 06:14:49;;;;;;;3.38;1.80;;;;;;;18.87;57.03;101118.94;5046715;28;20032;-54
2022/10/23 06:17:15;;;;;;;3.00;2.20;;;;;;;18.96;57.12;101128.75;5045051;28;20025;-54
2022/10/23 06:19:40;;;;;;;3.03;2.20;;;;;;;18.97;56.86;101129.59;5044762;28;20025;-53
2022/10/23 06:22:05;;;;;;;3.53;2.53;;;;;;;18.96;57.03;101126.03;5044819;28;20471;-50
2022/10/23 06:24:31;;;;;;;2.70;2.00;;;;;;;18.96;56.84;101120.66;5054667;28;20037;-51
2022/10/23 06:26:56;;;;;;;3.30;2.10;;;;;;;18.96;57.07;101126.03;5064744;28;20025;-50
2022/10/23 06:29:21;;;;;;;3.15;2.10;;;;;;;18.95;57.26;101121.66;5064275;28;20055;-50
2022/10/23 06:31:47;;;;;;;9.15;3.15;;;;;;;18.96;56.88;101127.91;5064433;28;20024;-51
2022/10/23 06:34:12;;;;;;;2.97;2.03;;;;;;;18.95;57.08;101127.06;5064631;28;20076;-52
2022/10/23 06:36:37;;;;;;;2.65;2.00;;;;;;;18.93;57.07;101120.97;5063287;28;20017;-53
2022/10/23 06:39:03;;;;;;;3.40;2.00;;;;;;;18.96;57.40;101119.81;5062439;28;20028;-52
2022/10/23 06:41:28;;;;;;;2.70;1.85;;;;;;;18.86;57.17;101103.81;5064179;28;20543;-50
2022/10/23 06:43:54;;;;;;;3.50;2.47;;;;;;;18.95;56.99;101118.97;5064212;28;20032;-50
2022/10/23 06:46:19;;;;;;;3.72;2.03;;;;;;;18.95;57.28;101127.06;5064518;28;20017;-52
2022/10/23 06:48:45;;;;;;;4.47;2.13;;;;;;;18.95;57.16;101118.97;5064321;28;20020;-55
2022/10/23 06:51:11;;;;;;;4.05;2.08;;;;;;;18.96;57.46;101111.72;5079190;28;20044;-54
2022/10/23 06:53:37;;;;;;;3.33;2.17;;;;;;;18.95;57.25;101115.44;5063937;28;20454;-57
2022/10/23 06:56:04;;;;;;;5.55;2.38;;;;;;;18.94;57.20;101119.13;5064428;28;20027;-55
2022/10/23 06:58:30;;;;;;;3.22;2.20;;;;;;;18.93;57.21;101115.59;5063760;28;20088;-53
2022/10/23 07:00:55;;;;;;;3.88;2.20;;;;;;;18.90;57.24;101109.69;5063889;28;20025;-54
2022/10/23 07:03:20;;;;;;;3.60;2.28;;;;;;;18.92;57.04;101110.38;5064120;28;20033;-54
2022/10/23 07:05:48;;;;;;;12.45;3.10;;;;;;;18.93;57.32;101109.34;5063846;28;20033;-54
2022/10/23 07:08:14;;;;;;;13.07;3.37;;;;;;;18.92;57.09;101113.91;5063675;28;20060;-53
2022/10/23 07:10:42;;;;;;;9.95;3.17;;;;;;;18.83;57.20;101098.72;5063221;28;20278;-53
2022/10/23 07:13:10;;;;;;;8.00;2.75;;;;;;;18.93;57.16;101114.75;5063963;28;20017;-53
2022/10/23 07:15:36;;;;;;;10.63;3.30;;;;;;;18.93;57.34;101106.66;5063896;28;20048;-53
2022/10/23 07:18:02;;;;;;;8.05;2.97;;;;;;;18.91;57.04;101112.22;5064021;28;20037;-54
2022/10/23 07:20:28;;;;;;;10.00;2.97;;;;;;;18.92;57.46;101116.59;5063505;28;20032;-56
2022/10/23 07:22:54;;;;;;;10.23;3.00;;;;;;;18.92;57.27;101105.81;5063540;28;20063;-56
2022/10/23 07:25:21;;;;;;;13.82;4.03;;;;;;;18.92;57.20;101105.81;5063361;28;20054;-54
2022/10/23 07:27:46;;;;;;;7.50;3.10;;;;;;;18.93;57.41;101093.19;5062818;28;20032;-55
2022/10/23 07:30:12;;;;;;;9.57;3.13;;;;;;;18.94;57.32;101093.03;5063444;28;20116;-59
2022/10/23 07:32:38;;;;;;;9.25;3.10;;;;;;;18.87;57.39;101083.94;5053451;28;20522;-53
2022/10/23 07:35:03;;;;;;;10.60;3.58;;;;;;;18.95;57.88;101088.50;5051325;28;20131;-51
2022/10/23 07:37:29;;;;;;;8.18;3.40;;;;;;;18.97;58.51;101091.84;5056300;28;20028;-51
2022/10/23 07:39:54;;;;;;;14.65;3.50;;;;;;;18.98;58.84;101088.16;5058135;28;20627;-52
2022/10/23 07:42:20;;;;;;;9.55;3.70;;;;;;;19.01;59.08;101087.81;5062365;28;20017;-58
2022/10/23 07:44:45;;;;;;;8.00;3.30;;;;;;;19.04;60.20;101092.06;5061680;28;20024;-57
2022/10/23 07:47:10;;;;;;;14.77;3.90;;;;;;;19.07;60.94;101091.72;5063198;28;20029;-52
2022/10/23 07:49:35;;;;;;;7.85;3.80;;;;;;;19.07;61.36;101081.75;5048809;28;20085;-54
2022/10/23 07:52:01;;;;;;;8.65;3.92;;;;;;;19.03;61.62;101069.66;5057534;28;20032;-50
2022/10/23 07:54:26;;;;;;;7.22;3.92;;;;;;;18.76;61.90;101019.56;5047287;28;20080;-53
2022/10/23 07:56:51;;;;;;;6.65;3.28;;;;;;;19.10;61.69;101080.59;5054327;28;20037;-52
2022/10/23 07:59:16;;;;;;;10.77;3.42;;;;;;;19.10;61.85;101077.91;5054239;28;20051;-51
2022/10/23 08:01:42;;;;;;;10.95;3.50;;;;;;;19.08;62.04;101071.84;5048073;28;20100;-55
2022/10/23 08:04:08;;;;;;;8.15;3.63;;;;;;;19.10;61.91;101069.81;5059278;28;20499;-52
2022/10/23 08:06:37;;;;;;;8.57;3.13;;;;;;;19.11;62.17;101077.72;5048930;28;20104;-58
2022/10/23 08:09:02;;;;;;;9.68;3.40;;;;;;;19.12;61.73;101070.50;5062840;28;20093;-56
2022/10/23 08:11:34;;;;;;;10.52;3.65;;;;;;;19.13;61.68;101072.19;5049955;28;20060;-51
2022/10/23 08:13:59;;;;;;;8.48;3.92;;;;;;;19.06;61.80;101066.59;5051904;28;20139;-49
2022/10/23 08:16:24;;;;;;;9.02;2.80;;;;;;;19.15;61.71;101075.56;5058937;28;20060;-52
2022/10/23 08:18:50;;;;;;;9.10;3.40;;;;;;;19.17;61.49;101068.16;5051985;28;20486;-50
2022/10/23 08:21:16;;;;;;;5.97;3.05;;;;;;;19.16;61.15;101061.94;5062481;28;20051;-53
2022/10/23 08:23:41;;;;;;;6.45;3.75;;;;;;;19.18;61.14;101056.38;5058846;28;20025;-53
2022/10/23 08:26:07;;;;;;;4.43;2.65;;;;;;;19.15;61.03;101057.53;5061766;28;20033;-55
2022/10/23 08:28:33;;;;;;;6.38;3.00;;;;;;;19.18;60.81;101062.59;5062268;28;20028;-56
2022/10/23 08:31:05;;;;;;;9.73;3.95;;;;;;;19.18;60.94;101059.06;5059526;28;20021;-53
2022/10/23 08:33:31;;;;;;;7.15;2.75;;;;;;;19.18;60.31;101062.59;5055341;28;20076;-53
2022/10/23 08:35:56;;;;;;;5.00;3.25;;;;;;;19.15;60.50;101049.44;5052292;28;20029;-54
2022/10/23 08:38:22;;;;;;;7.18;3.05;;;;;;;19.17;60.27;101057.38;5061543;28;20040;-51
2022/10/23 08:40:47;;;;;;;6.60;3.42;;;;;;;19.20;60.12;101046.28;5065276;28;20105;-52
2022/10/23 08:43:21;;;;;;;4.97;2.90;;;;;;;19.22;59.88;101050.47;5061618;28;20117;-55
2022/10/23 08:45:59;;;;;;;4.50;2.92;;;;;;;19.21;59.94;101042.56;5061802;28;20031;-53
2022/10/23 08:48:32;;;;;;;4.55;2.20;;;;;;;19.22;60.07;101036.16;5065114;28;20037;-53
2022/10/23 08:51:05;;;;;;;5.32;2.30;;;;;;;19.28;60.01;101040.84;5065065;28;20029;-49
2022/10/23 08:53:35;;;;;;;8.77;2.63;;;;;;;19.30;59.82;101033.47;5055666;28;20063;-59
2022/10/23 08:56:04;;;;;;;6.03;2.58;;;;;;;19.27;59.71;101027.56;5065926;28;20083;-56
2022/10/23 08:58:44;;;;;;;6.53;3.30;;;;;;;19.32;59.78;101028.72;5049476;28;20026;-49
2022/10/23 09:01:41;;;;;;;8.20;3.00;;;;;;;19.31;59.50;101024.34;5045654;28;20021;-52
2022/10/23 09:04:10;;;;;;;7.07;2.83;;;;;;;19.31;59.36;101018.97;5058030;28;20033;-56
2022/10/23 09:06:40;;;;;;;;;;;;;;;19.31;59.18;101008.19;5059290;28;20048;-56
2022/10/23 09:09:50;;;;;;;5.00;2.33;;;;;;;19.30;59.01;101003.81;5080316;28;20007;-48
2022/10/23 09:12:19;;;;;;;4.32;2.42;;;;;;;19.29;59.11;101002.13;5057661;28;20035;-52
2022/10/23 09:14:50;;;;;;;5.13;2.20;;;;;;;19.30;59.26;100997.56;5064171;28;20456;-49
2022/10/23 09:17:24;;;;;;;4.13;2.55;;;;;;;19.17;59.08;100971.13;5061222;28;20085;-52
2022/10/23 09:20:19;;;;;;;4.20;2.20;;;;;;;19.20;58.91;100977.03;5055224;28;20028;-52
2022/10/23 09:22:46;;;;;;;4.65;2.17;;;;;;;19.20;58.91;100973.50;5047725;28;20025;-50
2022/10/23 09:25:24;;;;;;;5.20;2.28;;;;;;;19.28;58.89;100986.94;5049400;28;20021;-49
2022/10/23 09:27:54;;;;;;;3.92;2.45;;;;;;;19.28;58.58;100981.56;5065225;28;20025;-49
2022/10/23 09:30:33;;;;;;;6.03;2.40;;;;;;;19.28;58.78;100986.94;5065143;28;20029;-50
2022/10/23 09:32:59;;;;;;;5.93;2.22;;;;;;;19.29;58.42;100982.41;5065118;28;20032;-52
2022/10/23 09:35:27;;;;;;;6.53;2.35;;;;;;;19.26;58.70;100975.50;5059259;28;20562;-53
2022/10/23 09:37:53;;;;;;;3.87;2.60;;;;;;;19.30;58.62;100970.63;5055287;28;20027;-53
2022/10/23 09:40:25;;;;;;;5.43;2.47;;;;;;;19.27;58.67;100968.25;5062068;28;20605;-51
2022/10/23 09:42:54;;;;;;;6.05;2.58;;;;;;;19.32;58.27;100963.19;5065284;28;20439;-53
2022/10/23 09:45:25;;;;;;;6.88;2.42;;;;;;;19.32;58.78;100963.19;5064009;28;20024;-55
2022/10/23 09:47:50;;;;;;;5.57;2.40;;;;;;;19.32;58.37;100958.63;5063454;28;20029;-56
2022/10/23 09:50:19;;;;;;;5.43;2.85;;;;;;;19.33;58.15;100952.25;5064723;28;20032;-56
2022/10/23 09:52:44;;;;;;;3.90;2.00;;;;;;;19.33;58.29;100965.72;5080384;28;20032;-58
2022/10/23 09:55:21;;;;;;;3.67;1.88;;;;;;;19.33;58.59;100964.91;5064222;28;20025;-58
2022/10/23 09:57:47;;;;;;;7.18;3.25;;;;;;;19.32;58.54;100955.94;5062687;28;20029;-53
2022/10/23 10:00:12;;;;;;;4.18;1.83;;;;;;;19.32;58.59;100945.16;5063670;28;20045;-54
2022/10/23 10:02:38;;;;;;;5.60;2.22;;;;;;;19.32;58.36;100955.94;5062882;28;20029;-50
2022/10/23 10:05:28;;;;;;;5.90;2.05;;;;;;;19.32;58.19;100949.72;5045516;28;20029;-55
2022/10/23 10:08:18;;;;;;;4.20;2.40;;;;;;;19.31;58.24;100942.63;5063197;28;20064;-51
2022/10/23 10:10:56;;;;;;;3.30;1.95;;;;;;;19.31;58.43;100940.78;5047827;28;20474;-51
2022/10/23 10:13:37;;;;;;;4.00;1.77;;;;;;;19.30;58.37;100931.03;5060701;28;20029;-54
2022/10/23 10:16:07;;;;;;;3.97;2.15;;;;;;;19.29;58.24;100918.56;5048934;28;20095;-54
2022/10/23 10:18:42;;;;;;;3.83;2.22;;;;;;;19.27;58.16;100931.34;5063529;28;20029;-56
2022/10/23 10:21:17;;;;;;;4.00;2.17;;;;;;;19.19;58.48;100925.97;5063053;28;20127;-47
2022/10/23 10:23:49;;;;;;;5.72;3.28;;;;;;;19.26;58.15;100918.06;5063217;28;20032;-49
2022/10/23 10:26:30;;;;;;;6.53;3.25;;;;;;;19.25;58.63;100919.91;5063971;28;20542;-52
2022/10/23 10:29:18;;;;;;;5.45;3.00;;;;;;;19.26;58.62;100921.59;5047646;28;20037;-51
2022/10/23 10:32:05;;;;;;;6.32;3.58;;;;;;;19.27;58.50;100922.44;5064200;28;20571;-49
2022/10/23 10:34:53;;;;;;;8.70;3.55;;;;;;;19.27;58.61;100919.72;5059364;28;20033;-50
2022/10/23 10:37:32;;;;;;;5.47;3.05;;;;;;;19.27;58.28;100904.41;5062112;28;20374;-49
2022/10/23 10:40:20;;;;;;;7.90;3.15;;;;;;;19.28;58.22;100911.47;5059960;28;20026;-50
2022/10/23 10:43:00;;;;;;;6.25;3.00;;;;;;;19.29;58.42;100909.63;5063585;28;20465;-52
2022/10/23 10:45:32;;;;;;;6.03;3.47;;;;;;;19.29;58.14;100917.72;5047734;28;20037;-48
2022/10/23 10:48:30;;;;;;;9.43;3.95;;;;;;;19.30;58.42;100914.84;5054548;28;20032;-49
2022/10/23 10:51:01;;;;;;;6.35;3.60;;;;;;;19.32;58.29;100903.88;5019694;28;20045;-51
2022/10/23 10:53:33;;;;;;;6.20;3.00;;;;;;;19.33;58.42;100886.72;5018225;28;20097;-46
2022/10/23 10:55:58;;;;;;;7.25;3.55;;;;;;;19.09;58.20;100841.78;5011783;28;20046;-50
2022/10/23 10:58:49;;;;;;;7.00;3.38;;;;;;;19.35;58.51;100861.25;5017890;28;20083;-52
2022/10/23 11:01:25;;;;;;;5.07;3.15;;;;;;;19.26;58.20;100835.34;5005093;28;20048;-52
2022/10/23 11:04:32;;;;;;;7.55;3.55;;;;;;;19.38;58.01;100852.81;5005406;28;20112;-50
2022/10/23 11:06:58;;;;;;;6.75;3.47;;;;;;;19.40;58.18;100849.94;4983888;28;20054;-52
2022/10/23 11:09:26;;;;;;;4.90;3.30;;;;;;;19.40;58.00;100849.94;4992989;28;20042;-51
2022/10/23 11:11:51;;;;;;;5.55;3.28;;;;;;;19.30;58.32;100833.13;4993070;28;20034;-51
2022/10/23 11:14:19;;;;;;;6.45;3.50;;;;;;;19.40;58.33;100833.75;4990775;28;20557;-49
2022/10/23 11:16:47;;;;;;;7.03;3.17;;;;;;;19.40;57.86;100822.97;4993364;28;20022;-48
2022/10/23 11:19:25;;;;;;;5.78;3.10;;;;;;;19.43;58.17;100822.63;4992035;28;20374;-48
2022/10/23 11:21:56;;;;;;;5.28;3.20;;;;;;;19.35;58.11;100803.78;4991359;28;20076;-50
2022/10/23 11:24:52;;;;;;;4.38;3.10;;;;;;;19.43;58.11;100822.63;4989027;28;20045;-50
2022/10/23 11:27:41;;;;;;;6.72;3.63;;;;;;;19.46;58.26;100822.31;4977057;28;20048;-48
2022/10/23 11:30:28;;;;;;;5.18;2.70;;;;;;;19.46;58.28;100806.97;5018864;28;20060;-50
2022/10/23 11:33:24;;;;;;;7.38;3.00;;;;;;;19.49;58.14;100798.50;5001178;28;20490;-49
2022/10/23 11:36:03;;;;;;;5.03;2.90;;;;;;;19.51;58.37;100786.72;5010148;28;20044;-51
2022/10/23 11:38:32;;;;;;;5.07;2.60;;;;;;;19.53;58.25;100785.50;5007114;28;20559;-50